<?xml version="1.0" encoding="UTF-8" standalone="no" ?>
<gpx xmlns="http://www.topografix.com/GPX/1/1" xmlns:xsi="http://www.w3.org/2001/XMLSchema-instance" xsi:schemaLocation="http://www.topografix.com/GPX/1/1 http://www.topografix.com/GPX/1/1/gpx.xsd" version="1.1" creator="VisuGPX - https://www.visugpx.com">
  <metadata>
    <name>Vallon des Dévens</name>
    <desc><![CDATA[variante par le vallon des Dévens au départ de Ceyreste]]></desc>
  </metadata>
  <trk>
    <name><![CDATA[2012-03-02 Dévens]]></name>
    <trkseg>
      <trkpt lat="43.22232" lon="5.62996">
        <ele>158.27416992188</ele>
        <time>2012-03-02T10:09:46Z</time>
      </trkpt>
      <trkpt lat="43.22232" lon="5.62997">
        <ele>158.27416992188</ele>
        <time>2012-03-02T10:09:47Z</time>
      </trkpt>
      <trkpt lat="43.22232" lon="5.62997">
        <ele>158.75476074219</ele>
        <time>2012-03-02T10:09:48Z</time>
      </trkpt>
      <trkpt lat="43.22235" lon="5.62996">
        <ele>158.27416992188</ele>
        <time>2012-03-02T10:09:54Z</time>
      </trkpt>
      <trkpt lat="43.22263" lon="5.63038">
        <ele>161.63891601562</ele>
        <time>2012-03-02T10:10:18Z</time>
      </trkpt>
      <trkpt lat="43.22292" lon="5.63086">
        <ele>163.5615234375</ele>
        <time>2012-03-02T10:10:40Z</time>
      </trkpt>
      <trkpt lat="43.22316" lon="5.63126">
        <ele>166.4453125</ele>
        <time>2012-03-02T10:10:59Z</time>
      </trkpt>
      <trkpt lat="43.22335" lon="5.63169">
        <ele>168.84875488281</ele>
        <time>2012-03-02T10:11:19Z</time>
      </trkpt>
      <trkpt lat="43.22348" lon="5.63219">
        <ele>171.73266601562</ele>
        <time>2012-03-02T10:11:38Z</time>
      </trkpt>
      <trkpt lat="43.22361" lon="5.63251">
        <ele>175.09729003906</ele>
        <time>2012-03-02T10:11:54Z</time>
      </trkpt>
      <trkpt lat="43.22373" lon="5.63277">
        <ele>177.98120117188</ele>
        <time>2012-03-02T10:12:11Z</time>
      </trkpt>
      <trkpt lat="43.22397" lon="5.63287">
        <ele>181.34582519531</ele>
        <time>2012-03-02T10:12:29Z</time>
      </trkpt>
      <trkpt lat="43.2242" lon="5.63297">
        <ele>184.22985839844</ele>
        <time>2012-03-02T10:12:47Z</time>
      </trkpt>
      <trkpt lat="43.22435" lon="5.63315">
        <ele>186.63317871094</ele>
        <time>2012-03-02T10:13:03Z</time>
      </trkpt>
      <trkpt lat="43.22436" lon="5.63316">
        <ele>187.11376953125</ele>
        <time>2012-03-02T10:13:04Z</time>
      </trkpt>
      <trkpt lat="43.22468" lon="5.63335">
        <ele>189.99768066406</ele>
        <time>2012-03-02T10:13:26Z</time>
      </trkpt>
      <trkpt lat="43.22492" lon="5.63359">
        <ele>192.88171386719</ele>
        <time>2012-03-02T10:13:46Z</time>
      </trkpt>
      <trkpt lat="43.2252" lon="5.63375">
        <ele>195.765625</ele>
        <time>2012-03-02T10:14:06Z</time>
      </trkpt>
      <trkpt lat="43.22524" lon="5.63377">
        <ele>196.24633789062</ele>
        <time>2012-03-02T10:14:08Z</time>
      </trkpt>
      <trkpt lat="43.22545" lon="5.63409">
        <ele>199.13012695312</ele>
        <time>2012-03-02T10:14:28Z</time>
      </trkpt>
      <trkpt lat="43.22575" lon="5.63434">
        <ele>201.53356933594</ele>
        <time>2012-03-02T10:14:48Z</time>
      </trkpt>
      <trkpt lat="43.22585" lon="5.63485">
        <ele>203.93688964844</ele>
        <time>2012-03-02T10:15:09Z</time>
      </trkpt>
      <trkpt lat="43.22598" lon="5.63535">
        <ele>205.37878417969</ele>
        <time>2012-03-02T10:15:30Z</time>
      </trkpt>
      <trkpt lat="43.22623" lon="5.63559">
        <ele>208.74340820312</ele>
        <time>2012-03-02T10:15:49Z</time>
      </trkpt>
      <trkpt lat="43.22642" lon="5.63559">
        <ele>212.10803222656</ele>
        <time>2012-03-02T10:16:02Z</time>
      </trkpt>
      <trkpt lat="43.2265" lon="5.63565">
        <ele>213.55004882812</ele>
        <time>2012-03-02T10:16:09Z</time>
      </trkpt>
      <trkpt lat="43.22652" lon="5.63574">
        <ele>214.51123046875</ele>
        <time>2012-03-02T10:16:15Z</time>
      </trkpt>
      <trkpt lat="43.22655" lon="5.63609">
        <ele>217.8759765625</ele>
        <time>2012-03-02T10:16:34Z</time>
      </trkpt>
      <trkpt lat="43.22664" lon="5.63641">
        <ele>221.24060058594</ele>
        <time>2012-03-02T10:16:53Z</time>
      </trkpt>
      <trkpt lat="43.22674" lon="5.63677">
        <ele>224.12451171875</ele>
        <time>2012-03-02T10:17:14Z</time>
      </trkpt>
      <trkpt lat="43.22685" lon="5.63715">
        <ele>227.48913574219</ele>
        <time>2012-03-02T10:17:35Z</time>
      </trkpt>
      <trkpt lat="43.22687" lon="5.63721">
        <ele>227.9697265625</ele>
        <time>2012-03-02T10:17:39Z</time>
      </trkpt>
      <trkpt lat="43.22705" lon="5.63746">
        <ele>231.33435058594</ele>
        <time>2012-03-02T10:17:56Z</time>
      </trkpt>
      <trkpt lat="43.22722" lon="5.63768">
        <ele>234.69909667969</ele>
        <time>2012-03-02T10:18:12Z</time>
      </trkpt>
      <trkpt lat="43.22741" lon="5.63785">
        <ele>237.58288574219</ele>
        <time>2012-03-02T10:18:28Z</time>
      </trkpt>
      <trkpt lat="43.22763" lon="5.63796">
        <ele>240.94763183594</ele>
        <time>2012-03-02T10:18:45Z</time>
      </trkpt>
      <trkpt lat="43.22781" lon="5.6381">
        <ele>242.87023925781</ele>
        <time>2012-03-02T10:19:07Z</time>
      </trkpt>
      <trkpt lat="43.22793" lon="5.63823">
        <ele>245.75415039062</ele>
        <time>2012-03-02T10:21:03Z</time>
      </trkpt>
      <trkpt lat="43.22798" lon="5.63829">
        <ele>246.71545410156</ele>
        <time>2012-03-02T10:21:08Z</time>
      </trkpt>
      <trkpt lat="43.228" lon="5.63833">
        <ele>246.71545410156</ele>
        <time>2012-03-02T10:21:11Z</time>
      </trkpt>
      <trkpt lat="43.22816" lon="5.63867">
        <ele>250.08020019531</ele>
        <time>2012-03-02T10:21:32Z</time>
      </trkpt>
      <trkpt lat="43.22817" lon="5.63907">
        <ele>252.4833984375</ele>
        <time>2012-03-02T10:21:54Z</time>
      </trkpt>
      <trkpt lat="43.22826" lon="5.63938">
        <ele>255.36730957031</ele>
        <time>2012-03-02T10:22:11Z</time>
      </trkpt>
      <trkpt lat="43.22843" lon="5.63962">
        <ele>258.73193359375</ele>
        <time>2012-03-02T10:22:29Z</time>
      </trkpt>
      <trkpt lat="43.22858" lon="5.6399">
        <ele>261.61596679688</ele>
        <time>2012-03-02T10:22:47Z</time>
      </trkpt>
      <trkpt lat="43.22867" lon="5.64">
        <ele>263.05786132812</ele>
        <time>2012-03-02T10:22:55Z</time>
      </trkpt>
      <trkpt lat="43.22871" lon="5.63995">
        <ele>264.01928710938</ele>
        <time>2012-03-02T10:23:00Z</time>
      </trkpt>
      <trkpt lat="43.22871" lon="5.63958">
        <ele>267.38391113281</ele>
        <time>2012-03-02T10:23:21Z</time>
      </trkpt>
      <trkpt lat="43.22878" lon="5.63919">
        <ele>270.26770019531</ele>
        <time>2012-03-02T10:23:43Z</time>
      </trkpt>
      <trkpt lat="43.2288" lon="5.63885">
        <ele>272.1904296875</ele>
        <time>2012-03-02T10:24:00Z</time>
      </trkpt>
      <trkpt lat="43.22882" lon="5.63878">
        <ele>272.67114257812</ele>
        <time>2012-03-02T10:24:04Z</time>
      </trkpt>
      <trkpt lat="43.22886" lon="5.63874">
        <ele>273.63244628906</ele>
        <time>2012-03-02T10:24:08Z</time>
      </trkpt>
      <trkpt lat="43.22892" lon="5.63882">
        <ele>274.11303710938</ele>
        <time>2012-03-02T10:24:15Z</time>
      </trkpt>
      <trkpt lat="43.22901" lon="5.63917">
        <ele>277.47766113281</ele>
        <time>2012-03-02T10:24:36Z</time>
      </trkpt>
      <trkpt lat="43.22913" lon="5.63937">
        <ele>279.40026855469</ele>
        <time>2012-03-02T10:24:50Z</time>
      </trkpt>
      <trkpt lat="43.22934" lon="5.63961">
        <ele>282.76501464844</ele>
        <time>2012-03-02T10:25:12Z</time>
      </trkpt>
      <trkpt lat="43.22936" lon="5.63964">
        <ele>282.76501464844</ele>
        <time>2012-03-02T10:25:14Z</time>
      </trkpt>
      <trkpt lat="43.22956" lon="5.63989">
        <ele>285.64880371094</ele>
        <time>2012-03-02T10:25:34Z</time>
      </trkpt>
      <trkpt lat="43.22974" lon="5.64017">
        <ele>289.01354980469</ele>
        <time>2012-03-02T10:25:55Z</time>
      </trkpt>
      <trkpt lat="43.22991" lon="5.64046">
        <ele>291.8974609375</ele>
        <time>2012-03-02T10:26:17Z</time>
      </trkpt>
      <trkpt lat="43.23007" lon="5.64082">
        <ele>294.30078125</ele>
        <time>2012-03-02T10:26:39Z</time>
      </trkpt>
      <trkpt lat="43.23008" lon="5.64084">
        <ele>294.78137207031</ele>
        <time>2012-03-02T10:26:40Z</time>
      </trkpt>
      <trkpt lat="43.23012" lon="5.64099">
        <ele>295.74267578125</ele>
        <time>2012-03-02T10:26:48Z</time>
      </trkpt>
      <trkpt lat="43.23016" lon="5.64102">
        <ele>296.22351074219</ele>
        <time>2012-03-02T10:26:51Z</time>
      </trkpt>
      <trkpt lat="43.23024" lon="5.64084">
        <ele>298.14611816406</ele>
        <time>2012-03-02T10:27:06Z</time>
      </trkpt>
      <trkpt lat="43.23024" lon="5.64076">
        <ele>299.10729980469</ele>
        <time>2012-03-02T10:27:11Z</time>
      </trkpt>
      <trkpt lat="43.23033" lon="5.64052">
        <ele>301.51062011719</ele>
        <time>2012-03-02T10:27:27Z</time>
      </trkpt>
      <trkpt lat="43.23039" lon="5.64054">
        <ele>301.99133300781</ele>
        <time>2012-03-02T10:27:31Z</time>
      </trkpt>
      <trkpt lat="43.23061" lon="5.64082">
        <ele>304.87524414062</ele>
        <time>2012-03-02T10:27:54Z</time>
      </trkpt>
      <trkpt lat="43.23066" lon="5.64095">
        <ele>305.35595703125</ele>
        <time>2012-03-02T10:28:02Z</time>
      </trkpt>
      <trkpt lat="43.23074" lon="5.64118">
        <ele>303.91394042969</ele>
        <time>2012-03-02T10:28:16Z</time>
      </trkpt>
      <trkpt lat="43.23091" lon="5.6415">
        <ele>309.201171875</ele>
        <time>2012-03-02T10:28:35Z</time>
      </trkpt>
      <trkpt lat="43.23091" lon="5.64151">
        <ele>309.201171875</ele>
        <time>2012-03-02T10:28:36Z</time>
      </trkpt>
      <trkpt lat="43.23099" lon="5.6417">
        <ele>311.12377929688</ele>
        <time>2012-03-02T10:28:48Z</time>
      </trkpt>
      <trkpt lat="43.23111" lon="5.64195">
        <ele>313.52722167969</ele>
        <time>2012-03-02T10:29:04Z</time>
      </trkpt>
      <trkpt lat="43.23128" lon="5.64224">
        <ele>316.41101074219</ele>
        <time>2012-03-02T10:29:24Z</time>
      </trkpt>
      <trkpt lat="43.2313" lon="5.64228">
        <ele>316.89172363281</ele>
        <time>2012-03-02T10:29:27Z</time>
      </trkpt>
      <trkpt lat="43.23134" lon="5.64235">
        <ele>317.85302734375</ele>
        <time>2012-03-02T10:29:32Z</time>
      </trkpt>
      <trkpt lat="43.23147" lon="5.64275">
        <ele>321.2177734375</ele>
        <time>2012-03-02T10:29:57Z</time>
      </trkpt>
      <trkpt lat="43.23152" lon="5.643">
        <ele>322.65966796875</ele>
        <time>2012-03-02T10:30:11Z</time>
      </trkpt>
      <trkpt lat="43.23163" lon="5.64338">
        <ele>324.58227539062</ele>
        <time>2012-03-02T10:30:32Z</time>
      </trkpt>
      <trkpt lat="43.23166" lon="5.64346">
        <ele>325.54357910156</ele>
        <time>2012-03-02T10:30:36Z</time>
      </trkpt>
      <trkpt lat="43.23184" lon="5.64377">
        <ele>327.46618652344</ele>
        <time>2012-03-02T10:30:56Z</time>
      </trkpt>
      <trkpt lat="43.23195" lon="5.64405">
        <ele>328.42761230469</ele>
        <time>2012-03-02T10:31:09Z</time>
      </trkpt>
      <trkpt lat="43.23213" lon="5.64435">
        <ele>329.86950683594</ele>
        <time>2012-03-02T10:31:25Z</time>
      </trkpt>
      <trkpt lat="43.23227" lon="5.6446">
        <ele>331.79211425781</ele>
        <time>2012-03-02T10:31:40Z</time>
      </trkpt>
      <trkpt lat="43.2324" lon="5.64483">
        <ele>334.67614746094</ele>
        <time>2012-03-02T10:31:55Z</time>
      </trkpt>
      <trkpt lat="43.2324" lon="5.64517">
        <ele>338.04077148438</ele>
        <time>2012-03-02T10:32:11Z</time>
      </trkpt>
      <trkpt lat="43.23242" lon="5.64547">
        <ele>340.92468261719</ele>
        <time>2012-03-02T10:32:26Z</time>
      </trkpt>
      <trkpt lat="43.23246" lon="5.64553">
        <ele>341.4052734375</ele>
        <time>2012-03-02T10:32:30Z</time>
      </trkpt>
      <trkpt lat="43.23269" lon="5.64561">
        <ele>344.77001953125</ele>
        <time>2012-03-02T10:32:46Z</time>
      </trkpt>
      <trkpt lat="43.23281" lon="5.64591">
        <ele>348.13464355469</ele>
        <time>2012-03-02T10:33:04Z</time>
      </trkpt>
      <trkpt lat="43.23291" lon="5.64625">
        <ele>351.01843261719</ele>
        <time>2012-03-02T10:33:28Z</time>
      </trkpt>
      <trkpt lat="43.23299" lon="5.64645">
        <ele>353.421875</ele>
        <time>2012-03-02T10:36:20Z</time>
      </trkpt>
      <trkpt lat="43.23312" lon="5.64667">
        <ele>355.34448242188</ele>
        <time>2012-03-02T10:36:36Z</time>
      </trkpt>
      <trkpt lat="43.23331" lon="5.64704">
        <ele>358.22839355469</ele>
        <time>2012-03-02T10:37:00Z</time>
      </trkpt>
      <trkpt lat="43.23348" lon="5.64738">
        <ele>361.11242675781</ele>
        <time>2012-03-02T10:37:21Z</time>
      </trkpt>
      <trkpt lat="43.23364" lon="5.64767">
        <ele>363.99633789062</ele>
        <time>2012-03-02T10:37:41Z</time>
      </trkpt>
      <trkpt lat="43.23376" lon="5.648">
        <ele>367.36096191406</ele>
        <time>2012-03-02T10:38:00Z</time>
      </trkpt>
      <trkpt lat="43.23386" lon="5.64832">
        <ele>370.24487304688</ele>
        <time>2012-03-02T10:38:18Z</time>
      </trkpt>
      <trkpt lat="43.23387" lon="5.64837">
        <ele>370.7255859375</ele>
        <time>2012-03-02T10:38:21Z</time>
      </trkpt>
      <trkpt lat="43.23405" lon="5.6487">
        <ele>373.60949707031</ele>
        <time>2012-03-02T10:38:43Z</time>
      </trkpt>
      <trkpt lat="43.2343" lon="5.64892">
        <ele>376.49353027344</ele>
        <time>2012-03-02T10:39:05Z</time>
      </trkpt>
      <trkpt lat="43.23453" lon="5.64913">
        <ele>378.89685058594</ele>
        <time>2012-03-02T10:39:27Z</time>
      </trkpt>
      <trkpt lat="43.23444" lon="5.64947">
        <ele>381.30004882812</ele>
        <time>2012-03-02T10:39:47Z</time>
      </trkpt>
      <trkpt lat="43.23444" lon="5.6495">
        <ele>381.78063964844</ele>
        <time>2012-03-02T10:39:49Z</time>
      </trkpt>
      <trkpt lat="43.23446" lon="5.64976">
        <ele>383.70324707031</ele>
        <time>2012-03-02T10:40:03Z</time>
      </trkpt>
      <trkpt lat="43.23447" lon="5.64978">
        <ele>384.18408203125</ele>
        <time>2012-03-02T10:40:05Z</time>
      </trkpt>
      <trkpt lat="43.2345" lon="5.64983">
        <ele>384.66479492188</ele>
        <time>2012-03-02T10:40:09Z</time>
      </trkpt>
      <trkpt lat="43.23452" lon="5.64991">
        <ele>385.6259765625</ele>
        <time>2012-03-02T10:40:14Z</time>
      </trkpt>
      <trkpt lat="43.23468" lon="5.6502">
        <ele>388.51000976562</ele>
        <time>2012-03-02T10:40:34Z</time>
      </trkpt>
      <trkpt lat="43.23483" lon="5.65046">
        <ele>391.87451171875</ele>
        <time>2012-03-02T10:40:52Z</time>
      </trkpt>
      <trkpt lat="43.2353" lon="5.6509">
        <ele>410.1396484375</ele>
        <time>2012-03-02T10:41:48Z</time>
      </trkpt>
      <trkpt lat="43.23601" lon="5.65125">
        <ele>399.56506347656</ele>
        <time>2012-03-02T10:43:40Z</time>
      </trkpt>
      <trkpt lat="43.23608" lon="5.65126">
        <ele>402.9296875</ele>
        <time>2012-03-02T10:43:45Z</time>
      </trkpt>
      <trkpt lat="43.23611" lon="5.65134">
        <ele>405.3330078125</ele>
        <time>2012-03-02T10:43:50Z</time>
      </trkpt>
      <trkpt lat="43.2361" lon="5.65143">
        <ele>407.25561523438</ele>
        <time>2012-03-02T10:43:55Z</time>
      </trkpt>
      <trkpt lat="43.23613" lon="5.65158">
        <ele>410.62023925781</ele>
        <time>2012-03-02T10:44:03Z</time>
      </trkpt>
      <trkpt lat="43.23615" lon="5.6517">
        <ele>413.02355957031</ele>
        <time>2012-03-02T10:44:10Z</time>
      </trkpt>
      <trkpt lat="43.23618" lon="5.65194">
        <ele>415.90747070312</ele>
        <time>2012-03-02T10:44:24Z</time>
      </trkpt>
      <trkpt lat="43.23623" lon="5.65238">
        <ele>418.79150390625</ele>
        <time>2012-03-02T10:44:47Z</time>
      </trkpt>
      <trkpt lat="43.23625" lon="5.65265">
        <ele>420.2333984375</ele>
        <time>2012-03-02T10:45:01Z</time>
      </trkpt>
      <trkpt lat="43.23626" lon="5.65276">
        <ele>421.19482421875</ele>
        <time>2012-03-02T10:45:07Z</time>
      </trkpt>
      <trkpt lat="43.23626" lon="5.65284">
        <ele>421.67541503906</ele>
        <time>2012-03-02T10:45:11Z</time>
      </trkpt>
      <trkpt lat="43.23628" lon="5.65313">
        <ele>423.11743164062</ele>
        <time>2012-03-02T10:45:25Z</time>
      </trkpt>
      <trkpt lat="43.2363" lon="5.65334">
        <ele>424.55944824219</ele>
        <time>2012-03-02T10:45:35Z</time>
      </trkpt>
      <trkpt lat="43.23632" lon="5.65346">
        <ele>425.52075195312</ele>
        <time>2012-03-02T10:45:41Z</time>
      </trkpt>
      <trkpt lat="43.23682" lon="5.654">
        <ele>424.55944824219</ele>
        <time>2012-03-02T10:47:07Z</time>
      </trkpt>
      <trkpt lat="43.23684" lon="5.65398">
        <ele>415.90747070312</ele>
        <time>2012-03-02T10:47:08Z</time>
      </trkpt>
      <trkpt lat="43.23686" lon="5.65395">
        <ele>413.98486328125</ele>
        <time>2012-03-02T10:47:10Z</time>
      </trkpt>
      <trkpt lat="43.23684" lon="5.65393">
        <ele>415.42687988281</ele>
        <time>2012-03-02T10:47:22Z</time>
      </trkpt>
      <trkpt lat="43.23685" lon="5.65395">
        <ele>418.79150390625</ele>
        <time>2012-03-02T10:47:29Z</time>
      </trkpt>
      <trkpt lat="43.23685" lon="5.65395">
        <ele>419.27221679688</ele>
        <time>2012-03-02T10:47:30Z</time>
      </trkpt>
      <trkpt lat="43.23683" lon="5.65395">
        <ele>422.15600585938</ele>
        <time>2012-03-02T10:47:40Z</time>
      </trkpt>
      <trkpt lat="43.23683" lon="5.65395">
        <ele>425.52075195312</ele>
        <time>2012-03-02T10:47:55Z</time>
      </trkpt>
      <trkpt lat="43.23683" lon="5.65395">
        <ele>428.40466308594</ele>
        <time>2012-03-02T10:48:32Z</time>
      </trkpt>
      <trkpt lat="43.23683" lon="5.65395">
        <ele>428.88537597656</ele>
        <time>2012-03-02T10:48:55Z</time>
      </trkpt>
      <trkpt lat="43.23683" lon="5.65395">
        <ele>428.88537597656</ele>
        <time>2012-03-02T10:49:07Z</time>
      </trkpt>
      <trkpt lat="43.23701" lon="5.65393">
        <ele>430.32727050781</ele>
        <time>2012-03-02T10:49:21Z</time>
      </trkpt>
      <trkpt lat="43.23699" lon="5.65385">
        <ele>430.32727050781</ele>
        <time>2012-03-02T10:49:40Z</time>
      </trkpt>
      <trkpt lat="43.23699" lon="5.65385">
        <ele>430.32727050781</ele>
        <time>2012-03-02T10:49:47Z</time>
      </trkpt>
      <trkpt lat="43.237" lon="5.65378">
        <ele>430.32727050781</ele>
        <time>2012-03-02T10:49:51Z</time>
      </trkpt>
      <trkpt lat="43.23709" lon="5.65339">
        <ele>432.25</ele>
        <time>2012-03-02T10:50:10Z</time>
      </trkpt>
      <trkpt lat="43.23716" lon="5.65306">
        <ele>433.69189453125</ele>
        <time>2012-03-02T10:50:26Z</time>
      </trkpt>
      <trkpt lat="43.23727" lon="5.6527">
        <ele>435.61450195312</ele>
        <time>2012-03-02T10:50:44Z</time>
      </trkpt>
      <trkpt lat="43.23736" lon="5.65227">
        <ele>437.05651855469</ele>
        <time>2012-03-02T10:51:04Z</time>
      </trkpt>
      <trkpt lat="43.23749" lon="5.65194">
        <ele>438.97912597656</ele>
        <time>2012-03-02T10:51:20Z</time>
      </trkpt>
      <trkpt lat="43.23763" lon="5.65156">
        <ele>440.42126464844</ele>
        <time>2012-03-02T10:51:38Z</time>
      </trkpt>
      <trkpt lat="43.23775" lon="5.6511">
        <ele>441.86315917969</ele>
        <time>2012-03-02T10:51:56Z</time>
      </trkpt>
      <trkpt lat="43.23781" lon="5.6509">
        <ele>442.82446289062</ele>
        <time>2012-03-02T10:52:04Z</time>
      </trkpt>
      <trkpt lat="43.2379" lon="5.65061">
        <ele>443.30505371094</ele>
        <time>2012-03-02T10:52:16Z</time>
      </trkpt>
      <trkpt lat="43.23791" lon="5.65052">
        <ele>443.78576660156</ele>
        <time>2012-03-02T10:52:20Z</time>
      </trkpt>
      <trkpt lat="43.23795" lon="5.64997">
        <ele>446.18908691406</ele>
        <time>2012-03-02T10:52:42Z</time>
      </trkpt>
      <trkpt lat="43.23797" lon="5.64976">
        <ele>447.15026855469</ele>
        <time>2012-03-02T10:52:51Z</time>
      </trkpt>
      <trkpt lat="43.23806" lon="5.64921">
        <ele>450.03442382812</ele>
        <time>2012-03-02T10:53:14Z</time>
      </trkpt>
      <trkpt lat="43.23818" lon="5.64883">
        <ele>453.39892578125</ele>
        <time>2012-03-02T10:53:32Z</time>
      </trkpt>
      <trkpt lat="43.23825" lon="5.64849">
        <ele>455.32153320312</ele>
        <time>2012-03-02T10:53:48Z</time>
      </trkpt>
      <trkpt lat="43.23833" lon="5.64801">
        <ele>455.80224609375</ele>
        <time>2012-03-02T10:54:04Z</time>
      </trkpt>
      <trkpt lat="43.23849" lon="5.64765">
        <ele>457.72497558594</ele>
        <time>2012-03-02T10:54:19Z</time>
      </trkpt>
      <trkpt lat="43.23866" lon="5.64733">
        <ele>460.60876464844</ele>
        <time>2012-03-02T10:54:37Z</time>
      </trkpt>
      <trkpt lat="43.23885" lon="5.64708">
        <ele>463.97338867188</ele>
        <time>2012-03-02T10:54:55Z</time>
      </trkpt>
      <trkpt lat="43.23907" lon="5.64685">
        <ele>466.37670898438</ele>
        <time>2012-03-02T10:55:14Z</time>
      </trkpt>
      <trkpt lat="43.23934" lon="5.64648">
        <ele>467.33813476562</ele>
        <time>2012-03-02T10:55:36Z</time>
      </trkpt>
      <trkpt lat="43.23959" lon="5.64621">
        <ele>469.2607421875</ele>
        <time>2012-03-02T10:55:53Z</time>
      </trkpt>
      <trkpt lat="43.23981" lon="5.64594">
        <ele>471.18334960938</ele>
        <time>2012-03-02T10:56:10Z</time>
      </trkpt>
      <trkpt lat="43.23999" lon="5.64571">
        <ele>474.54797363281</ele>
        <time>2012-03-02T10:56:27Z</time>
      </trkpt>
      <trkpt lat="43.24016" lon="5.64528">
        <ele>477.43188476562</ele>
        <time>2012-03-02T10:56:52Z</time>
      </trkpt>
      <trkpt lat="43.24002" lon="5.64489">
        <ele>478.87390136719</ele>
        <time>2012-03-02T10:57:13Z</time>
      </trkpt>
      <trkpt lat="43.23986" lon="5.64457">
        <ele>482.23852539062</ele>
        <time>2012-03-02T10:57:33Z</time>
      </trkpt>
      <trkpt lat="43.23981" lon="5.64423">
        <ele>485.12243652344</ele>
        <time>2012-03-02T10:57:54Z</time>
      </trkpt>
      <trkpt lat="43.2398" lon="5.64392">
        <ele>486.08374023438</ele>
        <time>2012-03-02T10:58:12Z</time>
      </trkpt>
      <trkpt lat="43.23984" lon="5.6435">
        <ele>486.564453125</ele>
        <time>2012-03-02T10:58:30Z</time>
      </trkpt>
      <trkpt lat="43.23979" lon="5.64306">
        <ele>483.19982910156</ele>
        <time>2012-03-02T10:58:38Z</time>
      </trkpt>
      <trkpt lat="43.23971" lon="5.64263">
        <ele>480.31591796875</ele>
        <time>2012-03-02T10:58:43Z</time>
      </trkpt>
      <trkpt lat="43.23964" lon="5.64236">
        <ele>479.3544921875</ele>
        <time>2012-03-02T10:58:46Z</time>
      </trkpt>
      <trkpt lat="43.23963" lon="5.64188">
        <ele>479.3544921875</ele>
        <time>2012-03-02T10:58:51Z</time>
      </trkpt>
      <trkpt lat="43.23972" lon="5.64153">
        <ele>479.3544921875</ele>
        <time>2012-03-02T10:58:55Z</time>
      </trkpt>
      <trkpt lat="43.23992" lon="5.641">
        <ele>482.71923828125</ele>
        <time>2012-03-02T10:59:03Z</time>
      </trkpt>
      <trkpt lat="43.24008" lon="5.6406">
        <ele>485.60302734375</ele>
        <time>2012-03-02T10:59:17Z</time>
      </trkpt>
      <trkpt lat="43.24021" lon="5.64018">
        <ele>488.48718261719</ele>
        <time>2012-03-02T10:59:37Z</time>
      </trkpt>
      <trkpt lat="43.24027" lon="5.63984">
        <ele>491.37097167969</ele>
        <time>2012-03-02T10:59:55Z</time>
      </trkpt>
      <trkpt lat="43.24034" lon="5.63936">
        <ele>494.25500488281</ele>
        <time>2012-03-02T11:00:19Z</time>
      </trkpt>
      <trkpt lat="43.24041" lon="5.6389">
        <ele>496.65832519531</ele>
        <time>2012-03-02T11:00:43Z</time>
      </trkpt>
      <trkpt lat="43.24044" lon="5.63847">
        <ele>499.0615234375</ele>
        <time>2012-03-02T11:01:03Z</time>
      </trkpt>
      <trkpt lat="43.24055" lon="5.63807">
        <ele>502.42614746094</ele>
        <time>2012-03-02T11:01:22Z</time>
      </trkpt>
      <trkpt lat="43.24067" lon="5.63775">
        <ele>505.31018066406</ele>
        <time>2012-03-02T11:01:40Z</time>
      </trkpt>
      <trkpt lat="43.24092" lon="5.6374">
        <ele>508.19409179688</ele>
        <time>2012-03-02T11:02:06Z</time>
      </trkpt>
      <trkpt lat="43.24116" lon="5.63722">
        <ele>511.55871582031</ele>
        <time>2012-03-02T11:02:25Z</time>
      </trkpt>
      <trkpt lat="43.24146" lon="5.637">
        <ele>513.4814453125</ele>
        <time>2012-03-02T11:02:48Z</time>
      </trkpt>
      <trkpt lat="43.2417" lon="5.63673">
        <ele>515.40405273438</ele>
        <time>2012-03-02T11:03:06Z</time>
      </trkpt>
      <trkpt lat="43.24202" lon="5.63643">
        <ele>515.88464355469</ele>
        <time>2012-03-02T11:03:25Z</time>
      </trkpt>
      <trkpt lat="43.24233" lon="5.63625">
        <ele>517.80725097656</ele>
        <time>2012-03-02T11:03:43Z</time>
      </trkpt>
      <trkpt lat="43.24269" lon="5.63596">
        <ele>518.7685546875</ele>
        <time>2012-03-02T11:04:02Z</time>
      </trkpt>
      <trkpt lat="43.24296" lon="5.63572">
        <ele>519.72985839844</ele>
        <time>2012-03-02T11:04:18Z</time>
      </trkpt>
      <trkpt lat="43.24297" lon="5.63559">
        <ele>520.69128417969</ele>
        <time>2012-03-02T11:08:20Z</time>
      </trkpt>
      <trkpt lat="43.24302" lon="5.63557">
        <ele>520.69128417969</ele>
        <time>2012-03-02T11:08:25Z</time>
      </trkpt>
      <trkpt lat="43.24301" lon="5.63568">
        <ele>520.69128417969</ele>
        <time>2012-03-02T11:08:31Z</time>
      </trkpt>
      <trkpt lat="43.24255" lon="5.63607">
        <ele>518.28784179688</ele>
        <time>2012-03-02T11:08:47Z</time>
      </trkpt>
      <trkpt lat="43.24223" lon="5.63632">
        <ele>517.32666015625</ele>
        <time>2012-03-02T11:08:54Z</time>
      </trkpt>
      <trkpt lat="43.24207" lon="5.6364">
        <ele>516.84594726562</ele>
        <time>2012-03-02T11:08:57Z</time>
      </trkpt>
      <trkpt lat="43.24191" lon="5.63651">
        <ele>516.365234375</ele>
        <time>2012-03-02T11:09:00Z</time>
      </trkpt>
      <trkpt lat="43.24153" lon="5.63694">
        <ele>514.44262695312</ele>
        <time>2012-03-02T11:09:10Z</time>
      </trkpt>
      <trkpt lat="43.24039" lon="5.63861">
        <ele>495.21618652344</ele>
        <time>2012-03-02T11:09:39Z</time>
      </trkpt>
      <trkpt lat="43.24039" lon="5.63902">
        <ele>494.73559570312</ele>
        <time>2012-03-02T11:11:25Z</time>
      </trkpt>
      <trkpt lat="43.24037" lon="5.63929">
        <ele>492.33239746094</ele>
        <time>2012-03-02T11:11:28Z</time>
      </trkpt>
      <trkpt lat="43.24035" lon="5.63948">
        <ele>491.85168457031</ele>
        <time>2012-03-02T11:11:30Z</time>
      </trkpt>
      <trkpt lat="43.24031" lon="5.63968">
        <ele>490.40979003906</ele>
        <time>2012-03-02T11:11:32Z</time>
      </trkpt>
      <trkpt lat="43.24026" lon="5.64">
        <ele>488.00646972656</ele>
        <time>2012-03-02T11:11:35Z</time>
      </trkpt>
      <trkpt lat="43.24022" lon="5.64023">
        <ele>486.564453125</ele>
        <time>2012-03-02T11:11:37Z</time>
      </trkpt>
      <trkpt lat="43.24013" lon="5.64055">
        <ele>485.12243652344</ele>
        <time>2012-03-02T11:11:40Z</time>
      </trkpt>
      <trkpt lat="43.23995" lon="5.64098">
        <ele>481.7578125</ele>
        <time>2012-03-02T11:11:44Z</time>
      </trkpt>
      <trkpt lat="43.23974" lon="5.64152">
        <ele>479.83508300781</ele>
        <time>2012-03-02T11:11:49Z</time>
      </trkpt>
      <trkpt lat="43.23965" lon="5.64228">
        <ele>480.79663085938</ele>
        <time>2012-03-02T11:11:56Z</time>
      </trkpt>
      <trkpt lat="43.23973" lon="5.64263">
        <ele>483.68041992188</ele>
        <time>2012-03-02T11:12:00Z</time>
      </trkpt>
      <trkpt lat="43.23981" lon="5.64303">
        <ele>486.08374023438</ele>
        <time>2012-03-02T11:12:07Z</time>
      </trkpt>
      <trkpt lat="43.23985" lon="5.64361">
        <ele>488.9677734375</ele>
        <time>2012-03-02T11:12:24Z</time>
      </trkpt>
      <trkpt lat="43.23983" lon="5.644">
        <ele>488.48718261719</ele>
        <time>2012-03-02T11:12:40Z</time>
      </trkpt>
      <trkpt lat="43.23982" lon="5.64401">
        <ele>488.9677734375</ele>
        <time>2012-03-02T11:12:58Z</time>
      </trkpt>
      <trkpt lat="43.23982" lon="5.64401">
        <ele>488.48718261719</ele>
        <time>2012-03-02T11:13:10Z</time>
      </trkpt>
      <trkpt lat="43.23975" lon="5.64401">
        <ele>487.52563476562</ele>
        <time>2012-03-02T11:13:15Z</time>
      </trkpt>
      <trkpt lat="43.23937" lon="5.64393">
        <ele>485.60302734375</ele>
        <time>2012-03-02T11:13:28Z</time>
      </trkpt>
      <trkpt lat="43.23919" lon="5.64403">
        <ele>483.19982910156</ele>
        <time>2012-03-02T11:13:32Z</time>
      </trkpt>
      <trkpt lat="43.23904" lon="5.64409">
        <ele>482.23852539062</ele>
        <time>2012-03-02T11:13:35Z</time>
      </trkpt>
      <trkpt lat="43.239" lon="5.64411">
        <ele>481.7578125</ele>
        <time>2012-03-02T11:13:36Z</time>
      </trkpt>
      <trkpt lat="43.23872" lon="5.64398">
        <ele>478.39318847656</ele>
        <time>2012-03-02T11:13:43Z</time>
      </trkpt>
      <trkpt lat="43.23855" lon="5.64379">
        <ele>474.54797363281</ele>
        <time>2012-03-02T11:13:48Z</time>
      </trkpt>
      <trkpt lat="43.23834" lon="5.64372">
        <ele>470.22192382812</ele>
        <time>2012-03-02T11:13:53Z</time>
      </trkpt>
      <trkpt lat="43.2382" lon="5.64372">
        <ele>467.33813476562</ele>
        <time>2012-03-02T11:13:56Z</time>
      </trkpt>
      <trkpt lat="43.23805" lon="5.64367">
        <ele>464.4541015625</ele>
        <time>2012-03-02T11:14:00Z</time>
      </trkpt>
      <trkpt lat="43.23795" lon="5.64357">
        <ele>461.08947753906</ele>
        <time>2012-03-02T11:14:03Z</time>
      </trkpt>
      <trkpt lat="43.23779" lon="5.64349">
        <ele>458.20556640625</ele>
        <time>2012-03-02T11:14:08Z</time>
      </trkpt>
      <trkpt lat="43.23769" lon="5.64351">
        <ele>455.80224609375</ele>
        <time>2012-03-02T11:14:12Z</time>
      </trkpt>
      <trkpt lat="43.23748" lon="5.64348">
        <ele>451.47631835938</ele>
        <time>2012-03-02T11:14:16Z</time>
      </trkpt>
      <trkpt lat="43.23742" lon="5.64347">
        <ele>450.51501464844</ele>
        <time>2012-03-02T11:14:17Z</time>
      </trkpt>
      <trkpt lat="43.23721" lon="5.64337">
        <ele>446.18908691406</ele>
        <time>2012-03-02T11:14:22Z</time>
      </trkpt>
      <trkpt lat="43.23713" lon="5.64337">
        <ele>444.7470703125</ele>
        <time>2012-03-02T11:14:24Z</time>
      </trkpt>
      <trkpt lat="43.23704" lon="5.64337">
        <ele>441.86315917969</ele>
        <time>2012-03-02T11:14:26Z</time>
      </trkpt>
      <trkpt lat="43.23684" lon="5.64331">
        <ele>438.49853515625</ele>
        <time>2012-03-02T11:14:30Z</time>
      </trkpt>
      <trkpt lat="43.23676" lon="5.64325">
        <ele>436.57592773438</ele>
        <time>2012-03-02T11:14:32Z</time>
      </trkpt>
      <trkpt lat="43.2366" lon="5.64314">
        <ele>433.21130371094</ele>
        <time>2012-03-02T11:14:36Z</time>
      </trkpt>
      <trkpt lat="43.23643" lon="5.64308">
        <ele>429.36596679688</ele>
        <time>2012-03-02T11:14:40Z</time>
      </trkpt>
      <trkpt lat="43.23631" lon="5.64302">
        <ele>426.48205566406</ele>
        <time>2012-03-02T11:14:43Z</time>
      </trkpt>
      <trkpt lat="43.23613" lon="5.6428">
        <ele>422.63671875</ele>
        <time>2012-03-02T11:14:48Z</time>
      </trkpt>
      <trkpt lat="43.23598" lon="5.64255">
        <ele>419.27221679688</ele>
        <time>2012-03-02T11:14:53Z</time>
      </trkpt>
      <trkpt lat="43.23575" lon="5.64235">
        <ele>415.90747070312</ele>
        <time>2012-03-02T11:14:58Z</time>
      </trkpt>
      <trkpt lat="43.2357" lon="5.64231">
        <ele>415.42687988281</ele>
        <time>2012-03-02T11:14:59Z</time>
      </trkpt>
      <trkpt lat="43.23547" lon="5.642">
        <ele>414.46545410156</ele>
        <time>2012-03-02T11:15:05Z</time>
      </trkpt>
      <trkpt lat="43.23533" lon="5.64175">
        <ele>412.54284667969</ele>
        <time>2012-03-02T11:15:10Z</time>
      </trkpt>
      <trkpt lat="43.23531" lon="5.64169">
        <ele>412.06225585938</ele>
        <time>2012-03-02T11:15:11Z</time>
      </trkpt>
      <trkpt lat="43.23526" lon="5.64142">
        <ele>410.62023925781</ele>
        <time>2012-03-02T11:15:15Z</time>
      </trkpt>
      <trkpt lat="43.23515" lon="5.64127">
        <ele>409.65905761719</ele>
        <time>2012-03-02T11:15:19Z</time>
      </trkpt>
      <trkpt lat="43.23498" lon="5.64111">
        <ele>405.81372070312</ele>
        <time>2012-03-02T11:15:24Z</time>
      </trkpt>
      <trkpt lat="43.23481" lon="5.64087">
        <ele>401.48779296875</ele>
        <time>2012-03-02T11:15:29Z</time>
      </trkpt>
      <trkpt lat="43.23477" lon="5.64082">
        <ele>401.00708007812</ele>
        <time>2012-03-02T11:15:30Z</time>
      </trkpt>
      <trkpt lat="43.23469" lon="5.64073">
        <ele>399.08435058594</ele>
        <time>2012-03-02T11:15:32Z</time>
      </trkpt>
      <trkpt lat="43.23459" lon="5.64057">
        <ele>396.68115234375</ele>
        <time>2012-03-02T11:15:35Z</time>
      </trkpt>
      <trkpt lat="43.23446" lon="5.64043">
        <ele>393.31652832031</ele>
        <time>2012-03-02T11:15:38Z</time>
      </trkpt>
      <trkpt lat="43.23422" lon="5.64007">
        <ele>389.95190429688</ele>
        <time>2012-03-02T11:15:44Z</time>
      </trkpt>
      <trkpt lat="43.23411" lon="5.63978">
        <ele>388.99060058594</ele>
        <time>2012-03-02T11:15:48Z</time>
      </trkpt>
      <trkpt lat="43.23403" lon="5.63936">
        <ele>388.99060058594</ele>
        <time>2012-03-02T11:15:54Z</time>
      </trkpt>
      <trkpt lat="43.23399" lon="5.63923">
        <ele>388.99060058594</ele>
        <time>2012-03-02T11:15:56Z</time>
      </trkpt>
      <trkpt lat="43.23386" lon="5.63907">
        <ele>388.51000976562</ele>
        <time>2012-03-02T11:16:00Z</time>
      </trkpt>
      <trkpt lat="43.23364" lon="5.63865">
        <ele>386.10668945312</ele>
        <time>2012-03-02T11:16:09Z</time>
      </trkpt>
      <trkpt lat="43.23356" lon="5.6383">
        <ele>382.74206542969</ele>
        <time>2012-03-02T11:16:15Z</time>
      </trkpt>
      <trkpt lat="43.23358" lon="5.63794">
        <ele>379.85803222656</ele>
        <time>2012-03-02T11:16:20Z</time>
      </trkpt>
      <trkpt lat="43.23362" lon="5.6378">
        <ele>378.89685058594</ele>
        <time>2012-03-02T11:16:22Z</time>
      </trkpt>
      <trkpt lat="43.23358" lon="5.63743">
        <ele>375.05151367188</ele>
        <time>2012-03-02T11:16:27Z</time>
      </trkpt>
      <trkpt lat="43.23353" lon="5.63721">
        <ele>373.12890625</ele>
        <time>2012-03-02T11:16:30Z</time>
      </trkpt>
      <trkpt lat="43.23338" lon="5.63701">
        <ele>368.80297851562</ele>
        <time>2012-03-02T11:16:35Z</time>
      </trkpt>
      <trkpt lat="43.23334" lon="5.63696">
        <ele>367.36096191406</ele>
        <time>2012-03-02T11:16:36Z</time>
      </trkpt>
      <trkpt lat="43.23314" lon="5.63671">
        <ele>362.07373046875</ele>
        <time>2012-03-02T11:16:40Z</time>
      </trkpt>
      <trkpt lat="43.23308" lon="5.63666">
        <ele>360.63171386719</ele>
        <time>2012-03-02T11:16:41Z</time>
      </trkpt>
      <trkpt lat="43.23293" lon="5.63652">
        <ele>360.15112304688</ele>
        <time>2012-03-02T11:16:44Z</time>
      </trkpt>
      <trkpt lat="43.23276" lon="5.63625">
        <ele>356.30578613281</ele>
        <time>2012-03-02T11:16:48Z</time>
      </trkpt>
      <trkpt lat="43.23253" lon="5.63593">
        <ele>351.97985839844</ele>
        <time>2012-03-02T11:16:53Z</time>
      </trkpt>
      <trkpt lat="43.23235" lon="5.63572">
        <ele>348.615234375</ele>
        <time>2012-03-02T11:16:56Z</time>
      </trkpt>
      <trkpt lat="43.23216" lon="5.63551">
        <ele>345.73132324219</ele>
        <time>2012-03-02T11:16:59Z</time>
      </trkpt>
      <trkpt lat="43.23196" lon="5.6353">
        <ele>343.32788085938</ele>
        <time>2012-03-02T11:17:02Z</time>
      </trkpt>
      <trkpt lat="43.23176" lon="5.63514">
        <ele>340.44409179688</ele>
        <time>2012-03-02T11:17:05Z</time>
      </trkpt>
      <trkpt lat="43.23155" lon="5.63499">
        <ele>338.04077148438</ele>
        <time>2012-03-02T11:17:08Z</time>
      </trkpt>
      <trkpt lat="43.23132" lon="5.63488">
        <ele>336.59887695312</ele>
        <time>2012-03-02T11:17:11Z</time>
      </trkpt>
      <trkpt lat="43.23125" lon="5.63486">
        <ele>336.1181640625</ele>
        <time>2012-03-02T11:17:12Z</time>
      </trkpt>
      <trkpt lat="43.23111" lon="5.63484">
        <ele>335.15673828125</ele>
        <time>2012-03-02T11:17:14Z</time>
      </trkpt>
      <trkpt lat="43.23083" lon="5.63488">
        <ele>331.3115234375</ele>
        <time>2012-03-02T11:17:19Z</time>
      </trkpt>
      <trkpt lat="43.23071" lon="5.63488">
        <ele>329.86950683594</ele>
        <time>2012-03-02T11:17:21Z</time>
      </trkpt>
      <trkpt lat="43.2305" lon="5.63481">
        <ele>326.98559570312</ele>
        <time>2012-03-02T11:17:25Z</time>
      </trkpt>
      <trkpt lat="43.23027" lon="5.63471">
        <ele>324.58227539062</ele>
        <time>2012-03-02T11:17:29Z</time>
      </trkpt>
      <trkpt lat="43.23004" lon="5.63449">
        <ele>321.2177734375</ele>
        <time>2012-03-02T11:17:34Z</time>
      </trkpt>
      <trkpt lat="43.22996" lon="5.63433">
        <ele>320.73706054688</ele>
        <time>2012-03-02T11:17:37Z</time>
      </trkpt>
      <trkpt lat="43.22977" lon="5.63412">
        <ele>316.89172363281</ele>
        <time>2012-03-02T11:17:43Z</time>
      </trkpt>
      <trkpt lat="43.22965" lon="5.63402">
        <ele>313.52722167969</ele>
        <time>2012-03-02T11:17:47Z</time>
      </trkpt>
      <trkpt lat="43.22954" lon="5.63393">
        <ele>309.68188476562</ele>
        <time>2012-03-02T11:17:51Z</time>
      </trkpt>
      <trkpt lat="43.22942" lon="5.63375">
        <ele>306.31726074219</ele>
        <time>2012-03-02T11:17:56Z</time>
      </trkpt>
      <trkpt lat="43.2294" lon="5.63369">
        <ele>304.87524414062</ele>
        <time>2012-03-02T11:17:57Z</time>
      </trkpt>
      <trkpt lat="43.22924" lon="5.63352">
        <ele>301.51062011719</ele>
        <time>2012-03-02T11:18:01Z</time>
      </trkpt>
      <trkpt lat="43.22914" lon="5.63345">
        <ele>298.62670898438</ele>
        <time>2012-03-02T11:18:03Z</time>
      </trkpt>
      <trkpt lat="43.22901" lon="5.63338">
        <ele>296.7041015625</ele>
        <time>2012-03-02T11:18:06Z</time>
      </trkpt>
      <trkpt lat="43.22883" lon="5.63333">
        <ele>293.33935546875</ele>
        <time>2012-03-02T11:18:10Z</time>
      </trkpt>
      <trkpt lat="43.22864" lon="5.63321">
        <ele>288.05224609375</ele>
        <time>2012-03-02T11:18:14Z</time>
      </trkpt>
      <trkpt lat="43.22844" lon="5.63307">
        <ele>284.20690917969</ele>
        <time>2012-03-02T11:18:17Z</time>
      </trkpt>
      <trkpt lat="43.22827" lon="5.63293">
        <ele>282.28430175781</ele>
        <time>2012-03-02T11:18:20Z</time>
      </trkpt>
      <trkpt lat="43.22808" lon="5.63272">
        <ele>278.91967773438</ele>
        <time>2012-03-02T11:18:26Z</time>
      </trkpt>
      <trkpt lat="43.22797" lon="5.63262">
        <ele>277.47766113281</ele>
        <time>2012-03-02T11:18:29Z</time>
      </trkpt>
      <trkpt lat="43.22795" lon="5.63257">
        <ele>276.51635742188</ele>
        <time>2012-03-02T11:18:30Z</time>
      </trkpt>
      <trkpt lat="43.2279" lon="5.63246">
        <ele>274.11303710938</ele>
        <time>2012-03-02T11:18:33Z</time>
      </trkpt>
      <trkpt lat="43.22772" lon="5.63243">
        <ele>270.74841308594</ele>
        <time>2012-03-02T11:18:38Z</time>
      </trkpt>
      <trkpt lat="43.22753" lon="5.63239">
        <ele>267.38391113281</ele>
        <time>2012-03-02T11:18:43Z</time>
      </trkpt>
      <trkpt lat="43.22739" lon="5.63232">
        <ele>264.01928710938</ele>
        <time>2012-03-02T11:18:47Z</time>
      </trkpt>
      <trkpt lat="43.22737" lon="5.6323">
        <ele>264.01928710938</ele>
        <time>2012-03-02T11:18:56Z</time>
      </trkpt>
      <trkpt lat="43.22725" lon="5.63223">
        <ele>260.17395019531</ele>
        <time>2012-03-02T11:19:11Z</time>
      </trkpt>
      <trkpt lat="43.22722" lon="5.63222">
        <ele>260.17395019531</ele>
        <time>2012-03-02T11:19:12Z</time>
      </trkpt>
      <trkpt lat="43.22708" lon="5.63217">
        <ele>256.80932617188</ele>
        <time>2012-03-02T11:19:18Z</time>
      </trkpt>
      <trkpt lat="43.227" lon="5.6321">
        <ele>253.92541503906</ele>
        <time>2012-03-02T11:19:21Z</time>
      </trkpt>
      <trkpt lat="43.22689" lon="5.63202">
        <ele>251.04138183594</ele>
        <time>2012-03-02T11:19:24Z</time>
      </trkpt>
      <trkpt lat="43.22676" lon="5.63184">
        <ele>247.6767578125</ele>
        <time>2012-03-02T11:19:28Z</time>
      </trkpt>
      <trkpt lat="43.22673" lon="5.6318">
        <ele>246.71545410156</ele>
        <time>2012-03-02T11:19:29Z</time>
      </trkpt>
      <trkpt lat="43.22649" lon="5.63158">
        <ele>241.42822265625</ele>
        <time>2012-03-02T11:19:34Z</time>
      </trkpt>
      <trkpt lat="43.22628" lon="5.63139">
        <ele>237.10229492188</ele>
        <time>2012-03-02T11:19:38Z</time>
      </trkpt>
      <trkpt lat="43.22617" lon="5.63129">
        <ele>234.21838378906</ele>
        <time>2012-03-02T11:19:40Z</time>
      </trkpt>
      <trkpt lat="43.22611" lon="5.63124">
        <ele>233.73767089844</ele>
        <time>2012-03-02T11:19:41Z</time>
      </trkpt>
      <trkpt lat="43.22588" lon="5.63093">
        <ele>230.373046875</ele>
        <time>2012-03-02T11:19:47Z</time>
      </trkpt>
      <trkpt lat="43.2258" lon="5.6306">
        <ele>226.04711914062</ele>
        <time>2012-03-02T11:19:51Z</time>
      </trkpt>
      <trkpt lat="43.22575" lon="5.63041">
        <ele>225.0859375</ele>
        <time>2012-03-02T11:19:53Z</time>
      </trkpt>
      <trkpt lat="43.2257" lon="5.63023">
        <ele>224.12451171875</ele>
        <time>2012-03-02T11:19:55Z</time>
      </trkpt>
      <trkpt lat="43.22564" lon="5.62996">
        <ele>222.68249511719</ele>
        <time>2012-03-02T11:19:58Z</time>
      </trkpt>
      <trkpt lat="43.22561" lon="5.62975">
        <ele>223.64379882812</ele>
        <time>2012-03-02T11:20:01Z</time>
      </trkpt>
      <trkpt lat="43.22569" lon="5.62937">
        <ele>220.75988769531</ele>
        <time>2012-03-02T11:20:10Z</time>
      </trkpt>
      <trkpt lat="43.22565" lon="5.62927">
        <ele>219.31799316406</ele>
        <time>2012-03-02T11:20:12Z</time>
      </trkpt>
      <trkpt lat="43.2256" lon="5.62919">
        <ele>218.35656738281</ele>
        <time>2012-03-02T11:20:14Z</time>
      </trkpt>
      <trkpt lat="43.22554" lon="5.62905">
        <ele>216.91467285156</ele>
        <time>2012-03-02T11:20:17Z</time>
      </trkpt>
      <trkpt lat="43.22536" lon="5.62889">
        <ele>214.51123046875</ele>
        <time>2012-03-02T11:20:23Z</time>
      </trkpt>
      <trkpt lat="43.22513" lon="5.62909">
        <ele>210.666015625</ele>
        <time>2012-03-02T11:20:30Z</time>
      </trkpt>
      <trkpt lat="43.22509" lon="5.62914">
        <ele>210.18542480469</ele>
        <time>2012-03-02T11:20:31Z</time>
      </trkpt>
      <trkpt lat="43.22506" lon="5.62918">
        <ele>210.18542480469</ele>
        <time>2012-03-02T11:20:32Z</time>
      </trkpt>
      <trkpt lat="43.225" lon="5.62929">
        <ele>209.22412109375</ele>
        <time>2012-03-02T11:20:34Z</time>
      </trkpt>
      <trkpt lat="43.22491" lon="5.62975">
        <ele>207.30139160156</ele>
        <time>2012-03-02T11:20:40Z</time>
      </trkpt>
      <trkpt lat="43.22495" lon="5.63008">
        <ele>207.30139160156</ele>
        <time>2012-03-02T11:20:45Z</time>
      </trkpt>
      <trkpt lat="43.225" lon="5.63025">
        <ele>205.85949707031</ele>
        <time>2012-03-02T11:20:48Z</time>
      </trkpt>
      <trkpt lat="43.22503" lon="5.63038">
        <ele>204.89807128906</ele>
        <time>2012-03-02T11:20:50Z</time>
      </trkpt>
      <trkpt lat="43.22503" lon="5.63085">
        <ele>201.53356933594</ele>
        <time>2012-03-02T11:20:57Z</time>
      </trkpt>
      <trkpt lat="43.22498" lon="5.63104">
        <ele>198.1689453125</ele>
        <time>2012-03-02T11:21:01Z</time>
      </trkpt>
      <trkpt lat="43.22493" lon="5.63132">
        <ele>194.80432128906</ele>
        <time>2012-03-02T11:21:06Z</time>
      </trkpt>
      <trkpt lat="43.22494" lon="5.63137">
        <ele>194.32373046875</ele>
        <time>2012-03-02T11:21:07Z</time>
      </trkpt>
      <trkpt lat="43.22507" lon="5.63179">
        <ele>189.99768066406</ele>
        <time>2012-03-02T11:21:15Z</time>
      </trkpt>
      <trkpt lat="43.22509" lon="5.6319">
        <ele>189.99768066406</ele>
        <time>2012-03-02T11:21:23Z</time>
      </trkpt>
      <trkpt lat="43.22509" lon="5.6319">
        <ele>189.99768066406</ele>
        <time>2012-03-02T11:21:29Z</time>
      </trkpt>
      <trkpt lat="43.22502" lon="5.63212">
        <ele>186.15246582031</ele>
        <time>2012-03-02T11:21:38Z</time>
      </trkpt>
      <trkpt lat="43.22496" lon="5.63213">
        <ele>185.19116210938</ele>
        <time>2012-03-02T11:21:43Z</time>
      </trkpt>
      <trkpt lat="43.22483" lon="5.63203">
        <ele>180.865234375</ele>
        <time>2012-03-02T11:21:49Z</time>
      </trkpt>
      <trkpt lat="43.22472" lon="5.63197">
        <ele>178.4619140625</ele>
        <time>2012-03-02T11:21:53Z</time>
      </trkpt>
      <trkpt lat="43.22459" lon="5.63185">
        <ele>176.05859375</ele>
        <time>2012-03-02T11:21:59Z</time>
      </trkpt>
      <trkpt lat="43.22454" lon="5.63182">
        <ele>175.09729003906</ele>
        <time>2012-03-02T11:22:14Z</time>
      </trkpt>
      <trkpt lat="43.22441" lon="5.63176">
        <ele>171.73266601562</ele>
        <time>2012-03-02T11:22:26Z</time>
      </trkpt>
      <trkpt lat="43.22437" lon="5.63175">
        <ele>170.77136230469</ele>
        <time>2012-03-02T11:22:27Z</time>
      </trkpt>
      <trkpt lat="43.22423" lon="5.63176">
        <ele>169.32946777344</ele>
        <time>2012-03-02T11:22:30Z</time>
      </trkpt>
      <trkpt lat="43.22405" lon="5.63156">
        <ele>170.29064941406</ele>
        <time>2012-03-02T11:22:38Z</time>
      </trkpt>
      <trkpt lat="43.22404" lon="5.63154">
        <ele>170.77136230469</ele>
        <time>2012-03-02T11:22:59Z</time>
      </trkpt>
      <trkpt lat="43.22399" lon="5.63149">
        <ele>171.73266601562</ele>
        <time>2012-03-02T11:23:04Z</time>
      </trkpt>
      <trkpt lat="43.22392" lon="5.63126">
        <ele>175.09729003906</ele>
        <time>2012-03-02T11:23:16Z</time>
      </trkpt>
      <trkpt lat="43.22392" lon="5.63121">
        <ele>175.57788085938</ele>
        <time>2012-03-02T11:23:19Z</time>
      </trkpt>
      <trkpt lat="43.2239" lon="5.63107">
        <ele>177.50061035156</ele>
        <time>2012-03-02T11:23:31Z</time>
      </trkpt>
      <trkpt lat="43.2239" lon="5.63109">
        <ele>177.50061035156</ele>
        <time>2012-03-02T11:24:09Z</time>
      </trkpt>
      <trkpt lat="43.22391" lon="5.63111">
        <ele>177.02001953125</ele>
        <time>2012-03-02T11:24:16Z</time>
      </trkpt>
      <trkpt lat="43.22396" lon="5.6313">
        <ele>173.6552734375</ele>
        <time>2012-03-02T11:24:25Z</time>
      </trkpt>
      <trkpt lat="43.22396" lon="5.63133">
        <ele>173.6552734375</ele>
        <time>2012-03-02T11:24:26Z</time>
      </trkpt>
      <trkpt lat="43.22405" lon="5.63146">
        <ele>169.81005859375</ele>
        <time>2012-03-02T11:24:31Z</time>
      </trkpt>
      <trkpt lat="43.22408" lon="5.63157">
        <ele>168.84875488281</ele>
        <time>2012-03-02T11:24:33Z</time>
      </trkpt>
      <trkpt lat="43.22413" lon="5.63162">
        <ele>168.36804199219</ele>
        <time>2012-03-02T11:24:40Z</time>
      </trkpt>
      <trkpt lat="43.22412" lon="5.63153">
        <ele>166.92602539062</ele>
        <time>2012-03-02T11:24:45Z</time>
      </trkpt>
      <trkpt lat="43.22408" lon="5.63147">
        <ele>165.48413085938</ele>
        <time>2012-03-02T11:24:48Z</time>
      </trkpt>
      <trkpt lat="43.22412" lon="5.63134">
        <ele>164.52270507812</ele>
        <time>2012-03-02T11:24:50Z</time>
      </trkpt>
      <trkpt lat="43.22411" lon="5.63124">
        <ele>163.5615234375</ele>
        <time>2012-03-02T11:24:52Z</time>
      </trkpt>
      <trkpt lat="43.224" lon="5.63079">
        <ele>161.63891601562</ele>
        <time>2012-03-02T11:25:02Z</time>
      </trkpt>
      <trkpt lat="43.22397" lon="5.63071">
        <ele>161.63891601562</ele>
        <time>2012-03-02T11:25:04Z</time>
      </trkpt>
      <trkpt lat="43.22387" lon="5.63054">
        <ele>159.23547363281</ele>
        <time>2012-03-02T11:25:08Z</time>
      </trkpt>
      <trkpt lat="43.22388" lon="5.63026">
        <ele>157.79357910156</ele>
        <time>2012-03-02T11:25:12Z</time>
      </trkpt>
      <trkpt lat="43.2239" lon="5.63013">
        <ele>157.31286621094</ele>
        <time>2012-03-02T11:25:14Z</time>
      </trkpt>
      <trkpt lat="43.22391" lon="5.62994">
        <ele>156.3515625</ele>
        <time>2012-03-02T11:25:17Z</time>
      </trkpt>
      <trkpt lat="43.22386" lon="5.62975">
        <ele>155.39025878906</ele>
        <time>2012-03-02T11:25:21Z</time>
      </trkpt>
      <trkpt lat="43.22383" lon="5.62954">
        <ele>152.98693847656</ele>
        <time>2012-03-02T11:25:25Z</time>
      </trkpt>
      <trkpt lat="43.2238" lon="5.62919">
        <ele>151.06420898438</ele>
        <time>2012-03-02T11:25:30Z</time>
      </trkpt>
      <trkpt lat="43.22368" lon="5.62889">
        <ele>149.1416015625</ele>
        <time>2012-03-02T11:25:36Z</time>
      </trkpt>
      <trkpt lat="43.22362" lon="5.62878">
        <ele>148.66101074219</ele>
        <time>2012-03-02T11:25:38Z</time>
      </trkpt>
      <trkpt lat="43.22359" lon="5.62864">
        <ele>148.18041992188</ele>
        <time>2012-03-02T11:25:40Z</time>
      </trkpt>
      <trkpt lat="43.22344" lon="5.62805">
        <ele>146.2578125</ele>
        <time>2012-03-02T11:25:48Z</time>
      </trkpt>
      <trkpt lat="43.22347" lon="5.62785">
        <ele>145.29638671875</ele>
        <time>2012-03-02T11:25:52Z</time>
      </trkpt>
      <trkpt lat="43.22357" lon="5.62774">
        <ele>143.85437011719</ele>
        <time>2012-03-02T11:25:57Z</time>
      </trkpt>
      <trkpt lat="43.2236" lon="5.62767">
        <ele>142.89306640625</ele>
        <time>2012-03-02T11:25:59Z</time>
      </trkpt>
      <trkpt lat="43.22363" lon="5.6275">
        <ele>141.45104980469</ele>
        <time>2012-03-02T11:26:02Z</time>
      </trkpt>
      <trkpt lat="43.2235" lon="5.62711">
        <ele>138.56726074219</ele>
        <time>2012-03-02T11:26:09Z</time>
      </trkpt>
      <trkpt lat="43.22344" lon="5.6269">
        <ele>137.12524414062</ele>
        <time>2012-03-02T11:26:12Z</time>
      </trkpt>
      <trkpt lat="43.22324" lon="5.6267">
        <ele>135.20251464844</ele>
        <time>2012-03-02T11:26:17Z</time>
      </trkpt>
      <trkpt lat="43.22302" lon="5.62659">
        <ele>134.2412109375</ele>
        <time>2012-03-02T11:26:21Z</time>
      </trkpt>
      <trkpt lat="43.22297" lon="5.62632">
        <ele>133.27990722656</ele>
        <time>2012-03-02T11:26:26Z</time>
      </trkpt>
      <trkpt lat="43.22282" lon="5.62602">
        <ele>130.87670898438</ele>
        <time>2012-03-02T11:26:32Z</time>
      </trkpt>
      <trkpt lat="43.22274" lon="5.62594">
        <ele>130.39599609375</ele>
        <time>2012-03-02T11:26:34Z</time>
      </trkpt>
      <trkpt lat="43.22264" lon="5.62547">
        <ele>127.51196289062</ele>
        <time>2012-03-02T11:26:41Z</time>
      </trkpt>
      <trkpt lat="43.22256" lon="5.62525">
        <ele>126.06994628906</ele>
        <time>2012-03-02T11:26:45Z</time>
      </trkpt>
      <trkpt lat="43.22253" lon="5.62519">
        <ele>125.58935546875</ele>
        <time>2012-03-02T11:26:46Z</time>
      </trkpt>
      <trkpt lat="43.22241" lon="5.62497">
        <ele>123.18615722656</ele>
        <time>2012-03-02T11:26:51Z</time>
      </trkpt>
      <trkpt lat="43.22241" lon="5.62471">
        <ele>120.30212402344</ele>
        <time>2012-03-02T11:26:55Z</time>
      </trkpt>
      <trkpt lat="43.22237" lon="5.62458">
        <ele>119.3408203125</ele>
        <time>2012-03-02T11:26:57Z</time>
      </trkpt>
      <trkpt lat="43.22227" lon="5.62454">
        <ele>118.86010742188</ele>
        <time>2012-03-02T11:27:00Z</time>
      </trkpt>
      <trkpt lat="43.2221" lon="5.62452">
        <ele>115.97619628906</ele>
        <time>2012-03-02T11:27:04Z</time>
      </trkpt>
      <trkpt lat="43.22195" lon="5.6245">
        <ele>114.5341796875</ele>
        <time>2012-03-02T11:27:07Z</time>
      </trkpt>
      <trkpt lat="43.22181" lon="5.62447">
        <ele>113.09228515625</ele>
        <time>2012-03-02T11:27:12Z</time>
      </trkpt>
      <trkpt lat="43.22178" lon="5.6244">
        <ele>112.13098144531</ele>
        <time>2012-03-02T11:27:14Z</time>
      </trkpt>
      <trkpt lat="43.22156" lon="5.62421">
        <ele>109.72766113281</ele>
        <time>2012-03-02T11:27:19Z</time>
      </trkpt>
      <trkpt lat="43.22153" lon="5.62416">
        <ele>109.24694824219</ele>
        <time>2012-03-02T11:27:20Z</time>
      </trkpt>
      <trkpt lat="43.22132" lon="5.62405">
        <ele>111.65026855469</ele>
        <time>2012-03-02T11:27:25Z</time>
      </trkpt>
      <trkpt lat="43.22097" lon="5.62419">
        <ele>113.57299804688</ele>
        <time>2012-03-02T11:27:38Z</time>
      </trkpt>
      <trkpt lat="43.22082" lon="5.62427">
        <ele>115.01489257812</ele>
        <time>2012-03-02T11:27:49Z</time>
      </trkpt>
      <trkpt lat="43.22058" lon="5.6244">
        <ele>116.45678710938</ele>
        <time>2012-03-02T11:28:01Z</time>
      </trkpt>
      <trkpt lat="43.22055" lon="5.62439">
        <ele>116.9375</ele>
        <time>2012-03-02T11:28:04Z</time>
      </trkpt>
      <trkpt lat="43.22047" lon="5.62435">
        <ele>119.3408203125</ele>
        <time>2012-03-02T11:28:15Z</time>
      </trkpt>
      <trkpt lat="43.22034" lon="5.62451">
        <ele>121.744140625</ele>
        <time>2012-03-02T11:28:31Z</time>
      </trkpt>
      <trkpt lat="43.2203" lon="5.62457">
        <ele>122.70544433594</ele>
        <time>2012-03-02T11:28:36Z</time>
      </trkpt>
      <trkpt lat="43.22022" lon="5.62465">
        <ele>124.62805175781</ele>
        <time>2012-03-02T11:28:48Z</time>
      </trkpt>
      <trkpt lat="43.22019" lon="5.62467">
        <ele>124.62805175781</ele>
        <time>2012-03-02T11:28:50Z</time>
      </trkpt>
      <trkpt lat="43.22015" lon="5.62471">
        <ele>125.58935546875</ele>
        <time>2012-03-02T11:28:53Z</time>
      </trkpt>
      <trkpt lat="43.22" lon="5.62478">
        <ele>127.03137207031</ele>
        <time>2012-03-02T11:29:05Z</time>
      </trkpt>
      <trkpt lat="43.21976" lon="5.62482">
        <ele>129.43469238281</ele>
        <time>2012-03-02T11:29:23Z</time>
      </trkpt>
      <trkpt lat="43.21974" lon="5.62481">
        <ele>129.91528320312</ele>
        <time>2012-03-02T11:29:25Z</time>
      </trkpt>
      <trkpt lat="43.21945" lon="5.62489">
        <ele>133.27990722656</ele>
        <time>2012-03-02T11:29:46Z</time>
      </trkpt>
      <trkpt lat="43.21924" lon="5.62505">
        <ele>135.20251464844</ele>
        <time>2012-03-02T11:30:04Z</time>
      </trkpt>
      <trkpt lat="43.21899" lon="5.62527">
        <ele>138.56726074219</ele>
        <time>2012-03-02T11:30:26Z</time>
      </trkpt>
      <trkpt lat="43.21886" lon="5.62545">
        <ele>140.00915527344</ele>
        <time>2012-03-02T11:30:40Z</time>
      </trkpt>
      <trkpt lat="43.21894" lon="5.62555">
        <ele>140.97045898438</ele>
        <time>2012-03-02T11:30:47Z</time>
      </trkpt>
      <trkpt lat="43.21909" lon="5.62555">
        <ele>142.89306640625</ele>
        <time>2012-03-02T11:31:00Z</time>
      </trkpt>
      <trkpt lat="43.21934" lon="5.62554">
        <ele>145.77709960938</ele>
        <time>2012-03-02T11:31:19Z</time>
      </trkpt>
      <trkpt lat="43.21955" lon="5.62552">
        <ele>147.69970703125</ele>
        <time>2012-03-02T11:31:33Z</time>
      </trkpt>
      <trkpt lat="43.21963" lon="5.62552">
        <ele>148.66101074219</ele>
        <time>2012-03-02T11:31:40Z</time>
      </trkpt>
      <trkpt lat="43.21991" lon="5.62555">
        <ele>152.02575683594</ele>
        <time>2012-03-02T11:32:01Z</time>
      </trkpt>
      <trkpt lat="43.22018" lon="5.62564">
        <ele>154.90954589844</ele>
        <time>2012-03-02T11:32:21Z</time>
      </trkpt>
      <trkpt lat="43.22043" lon="5.6256">
        <ele>157.79357910156</ele>
        <time>2012-03-02T11:32:40Z</time>
      </trkpt>
      <trkpt lat="43.22071" lon="5.62552">
        <ele>161.158203125</ele>
        <time>2012-03-02T11:33:02Z</time>
      </trkpt>
      <trkpt lat="43.22098" lon="5.62557">
        <ele>164.04211425781</ele>
        <time>2012-03-02T11:33:21Z</time>
      </trkpt>
      <trkpt lat="43.22123" lon="5.62576">
        <ele>166.92602539062</ele>
        <time>2012-03-02T11:33:41Z</time>
      </trkpt>
      <trkpt lat="43.22156" lon="5.62597">
        <ele>169.81005859375</ele>
        <time>2012-03-02T11:34:06Z</time>
      </trkpt>
      <trkpt lat="43.22182" lon="5.62614">
        <ele>172.21325683594</ele>
        <time>2012-03-02T11:34:26Z</time>
      </trkpt>
      <trkpt lat="43.22202" lon="5.62643">
        <ele>173.6552734375</ele>
        <time>2012-03-02T11:34:45Z</time>
      </trkpt>
      <trkpt lat="43.22209" lon="5.62671">
        <ele>175.57788085938</ele>
        <time>2012-03-02T11:35:00Z</time>
      </trkpt>
      <trkpt lat="43.22193" lon="5.62705">
        <ele>175.57788085938</ele>
        <time>2012-03-02T11:35:16Z</time>
      </trkpt>
      <trkpt lat="43.22172" lon="5.62741">
        <ele>176.53930664062</ele>
        <time>2012-03-02T11:35:27Z</time>
      </trkpt>
      <trkpt lat="43.22159" lon="5.62796">
        <ele>176.53930664062</ele>
        <time>2012-03-02T11:35:42Z</time>
      </trkpt>
      <trkpt lat="43.22146" lon="5.62875">
        <ele>176.53930664062</ele>
        <time>2012-03-02T11:36:00Z</time>
      </trkpt>
      <trkpt lat="43.22147" lon="5.62892">
        <ele>176.53930664062</ele>
        <time>2012-03-02T11:36:12Z</time>
      </trkpt>
      <trkpt lat="43.22149" lon="5.62892">
        <ele>177.02001953125</ele>
        <time>2012-03-02T11:36:20Z</time>
      </trkpt>
      <trkpt lat="43.22181" lon="5.62907">
        <ele>176.53930664062</ele>
        <time>2012-03-02T11:36:35Z</time>
      </trkpt>
      <trkpt lat="43.22181" lon="5.62921">
        <ele>176.05859375</ele>
        <time>2012-03-02T11:36:39Z</time>
      </trkpt>
      <trkpt lat="43.22182" lon="5.62945">
        <ele>176.05859375</ele>
        <time>2012-03-02T11:36:44Z</time>
      </trkpt>
      <trkpt lat="43.22188" lon="5.62957">
        <ele>177.50061035156</ele>
        <time>2012-03-02T11:36:48Z</time>
      </trkpt>
      <trkpt lat="43.22187" lon="5.62961">
        <ele>177.50061035156</ele>
        <time>2012-03-02T11:37:04Z</time>
      </trkpt>
      <trkpt lat="43.22188" lon="5.62961">
        <ele>178.4619140625</ele>
        <time>2012-03-02T11:37:10Z</time>
      </trkpt>
    </trkseg>
  </trk>
</gpx>